createdAt,value
2022-10-13T00:00:32.604Z,11.91
2022-10-13T00:05:42.527Z,11.90
2022-10-13T00:10:47.607Z,11.86
2022-10-13T00:16:08.521Z,11.91
2022-10-13T00:26:48.429Z,11.81
2022-10-13T00:32:00.959Z,11.76
2022-10-13T00:37:06.206Z,11.71
2022-10-13T00:42:16.833Z,11.67
2022-10-13T00:47:29.007Z,11.63
2022-10-13T00:52:46.355Z,11.62
2022-10-13T00:58:12.045Z,11.70
2022-10-13T01:03:42.328Z,11.74
2022-10-13T01:08:48.650Z,11.77
2022-10-13T01:14:09.704Z,11.84
2022-10-13T01:19:46.655Z,11.90
2022-10-13T01:25:07.488Z,11.89
2022-10-13T01:30:27.559Z,11.90
2022-10-13T01:35:55.658Z,11.90
2022-10-13T01:41:07.149Z,11.89
2022-10-13T01:46:26.256Z,11.95
2022-10-13T01:51:52.288Z,11.94
2022-10-13T01:57:02.152Z,11.90
2022-10-13T02:02:48.793Z,11.84
2022-10-13T02:08:10.756Z,11.76
2022-10-13T02:13:25.683Z,11.74
2022-10-13T02:18:50.521Z,11.76
2022-10-13T02:24:07.320Z,11.81
2022-10-13T02:29:17.361Z,11.88
2022-10-13T02:34:29.072Z,11.94
2022-10-13T02:39:55.295Z,11.97
2022-10-13T02:45:05.591Z,12.00
2022-10-13T02:50:14.615Z,12.05
2022-10-13T02:55:24.672Z,12.05
2022-10-13T03:00:35.347Z,12.06
2022-10-13T03:05:58.132Z,12.07
2022-10-13T03:11:05.775Z,12.03
2022-10-13T03:16:25.950Z,12.01
2022-10-13T03:21:58.331Z,11.96
2022-10-13T03:27:24.983Z,11.90
2022-10-13T03:32:44.389Z,11.81
2022-10-13T03:37:59.696Z,11.76
2022-10-13T03:43:11.626Z,11.72
2022-10-13T03:48:22.993Z,11.71
2022-10-13T03:54:01.893Z,11.73
2022-10-13T03:59:24.902Z,11.72
2022-10-13T04:04:35.197Z,11.70
2022-10-13T04:09:56.871Z,11.70
2022-10-13T04:15:07.301Z,11.68
2022-10-13T04:20:30.944Z,11.69
2022-10-13T04:25:57.880Z,11.74
2022-10-13T04:31:21.468Z,11.76
2022-10-13T04:36:34.537Z,11.83
2022-10-13T04:41:46.075Z,11.93
2022-10-13T04:46:53.528Z,11.97
2022-10-13T04:52:13.324Z,11.97
2022-10-13T05:03:08.996Z,12.04
2022-10-13T05:08:18.623Z,12.04
2022-10-13T05:13:34.279Z,12.14
2022-10-13T05:18:43.493Z,12.18
2022-10-13T05:24:00.534Z,12.27
2022-10-13T05:29:30.130Z,12.34
2022-10-13T05:34:36.651Z,12.38
2022-10-13T05:39:43.732Z,12.43
2022-10-13T05:45:04.683Z,12.46
2022-10-13T05:56:15.021Z,12.55
2022-10-13T06:01:30.147Z,12.60
2022-10-13T06:06:43.925Z,12.68
2022-10-13T06:11:53.462Z,12.76
2022-10-13T06:17:05.489Z,12.82
2022-10-13T06:22:13.503Z,12.86
2022-10-13T06:27:31.593Z,12.93
2022-10-13T06:32:38.089Z,13.07
2022-10-13T06:37:54.513Z,13.24
2022-10-13T06:43:07.160Z,13.50
2022-10-13T06:48:22.194Z,13.75
2022-10-13T06:53:36.978Z,13.93
2022-10-13T06:58:51.855Z,14.04
2022-10-13T07:04:01.529Z,14.02
2022-10-13T07:09:09.588Z,14.05
2022-10-13T07:14:21.697Z,14.27
2022-10-13T07:19:50.129Z,14.44
2022-10-13T07:25:00.161Z,14.63
2022-10-13T07:30:18.392Z,14.79
2022-10-13T07:35:34.586Z,14.93
2022-10-13T07:41:02.729Z,15.04
2022-10-13T07:46:28.021Z,15.22
2022-10-13T07:51:43.456Z,15.68
2022-10-13T07:56:53.069Z,15.81
2022-10-13T08:02:05.160Z,16.10
2022-10-13T08:07:18.470Z,16.18
2022-10-13T08:12:34.346Z,16.36
2022-10-13T08:17:51.685Z,16.58
2022-10-13T08:23:14.994Z,16.81
2022-10-13T08:28:22.698Z,16.93
2022-10-13T08:33:36.840Z,16.97
2022-10-13T08:39:04.218Z,17.12
2022-10-13T08:45:02.612Z,17.26
2022-10-13T08:50:14.374Z,17.43
2022-10-13T08:55:31.984Z,17.50
2022-10-13T09:00:40.912Z,17.52
2022-10-13T09:06:04.428Z,17.67
2022-10-13T09:11:19.449Z,17.69
2022-10-13T09:16:31.404Z,17.82
2022-10-13T09:21:37.857Z,17.90
2022-10-13T09:27:20.572Z,17.91
2022-10-13T09:32:30.584Z,17.89
2022-10-13T09:37:38.609Z,18.02
2022-10-13T09:42:59.533Z,18.13
2022-10-13T09:48:12.695Z,18.21
2022-10-13T09:53:34.356Z,18.30
2022-10-13T09:58:59.652Z,18.44
2022-10-13T10:04:10.524Z,18.61
2022-10-13T10:09:40.508Z,18.73
2022-10-13T10:15:14.423Z,18.80
2022-10-13T10:21:00.632Z,18.82
2022-10-13T10:26:32.738Z,18.83
2022-10-13T10:31:55.507Z,18.90
2022-10-13T10:37:19.695Z,18.95
2022-10-13T10:42:55.943Z,19.02
2022-10-13T10:48:13.419Z,19.12
2022-10-13T10:53:38.826Z,19.22
2022-10-13T10:58:59.380Z,19.28
2022-10-13T11:04:56.895Z,19.34
2022-10-13T11:10:36.906Z,19.45
2022-10-13T11:16:05.074Z,19.40
2022-10-13T11:21:24.399Z,19.30
2022-10-13T11:26:44.864Z,19.35
2022-10-13T11:31:56.177Z,19.41
2022-10-13T11:37:21.361Z,19.61
2022-10-13T11:43:17.558Z,19.68
2022-10-13T11:49:08.934Z,19.66
2022-10-13T11:54:58.789Z,19.73
2022-10-13T12:00:32.208Z,19.74
2022-10-13T12:06:05.829Z,19.65
2022-10-13T12:11:31.255Z,19.69
2022-10-13T12:16:58.429Z,19.71
2022-10-13T12:22:05.392Z,19.79
2022-10-13T12:27:27.180Z,20.03
2022-10-13T12:32:50.101Z,20.14
2022-10-13T12:38:04.918Z,20.12
2022-10-13T12:43:30.768Z,20.02
2022-10-13T12:48:39.599Z,19.89
2022-10-13T12:53:47.146Z,19.82
2022-10-13T12:59:01.442Z,19.75
2022-10-13T13:04:22.649Z,19.65
2022-10-13T13:09:30.642Z,19.60
2022-10-13T13:14:53.019Z,19.58
2022-10-13T13:19:58.779Z,19.57
2022-10-13T13:25:07.738Z,19.52
2022-10-13T13:30:33.004Z,19.63
2022-10-13T13:35:48.273Z,19.63
2022-10-13T13:47:01.165Z,19.74
2022-10-13T13:52:36.779Z,19.66
2022-10-13T13:57:46.441Z,19.57
2022-10-13T14:03:10.703Z,19.52
2022-10-13T14:08:17.067Z,19.44
2022-10-13T14:13:36.742Z,19.46
2022-10-13T14:18:54.611Z,19.45
2022-10-13T14:24:10.685Z,19.40
2022-10-13T14:29:37.035Z,19.34
2022-10-13T14:34:51.719Z,19.27
2022-10-13T14:40:14.456Z,19.20
2022-10-13T14:45:47.328Z,19.23
2022-10-13T14:51:07.160Z,19.17
2022-10-13T14:56:38.484Z,19.19
2022-10-13T15:01:47.070Z,19.01
2022-10-13T15:07:06.495Z,18.91
2022-10-13T15:12:24.175Z,18.87
2022-10-13T15:17:36.088Z,18.84
2022-10-13T15:22:56.947Z,18.73
2022-10-13T15:28:17.251Z,18.61
2022-10-13T15:33:29.396Z,18.51
2022-10-13T15:38:41.023Z,18.45
2022-10-13T15:43:51.536Z,18.45
2022-10-13T15:49:09.647Z,18.44
2022-10-13T15:54:24.089Z,18.38
2022-10-13T15:59:30.715Z,18.30
2022-10-13T16:04:39.983Z,18.23
2022-10-13T16:09:55.201Z,18.24
2022-10-13T16:15:00.520Z,18.20
2022-10-13T16:20:07.513Z,18.10
2022-10-13T16:25:31.725Z,18.05
2022-10-13T16:30:44.349Z,17.96
2022-10-13T16:35:49.418Z,17.90
2022-10-13T16:41:09.193Z,17.87
2022-10-13T16:46:23.831Z,17.79
2022-10-13T16:51:29.648Z,17.76
2022-10-13T16:56:35.650Z,17.65
2022-10-13T17:01:46.838Z,17.60
2022-10-13T17:07:08.619Z,17.54
2022-10-13T17:12:31.139Z,17.44
2022-10-13T17:17:46.020Z,17.40
2022-10-13T17:23:00.611Z,17.33
2022-10-13T17:28:11.210Z,17.30
2022-10-13T17:39:16.480Z,17.23
2022-10-13T17:50:12.342Z,17.13
2022-10-13T17:55:21.616Z,17.07
2022-10-13T18:00:30.058Z,16.99
2022-10-13T18:05:37.268Z,16.94
2022-10-13T18:11:07.475Z,16.93
2022-10-13T18:16:17.941Z,16.87
2022-10-13T18:21:40.094Z,16.82
2022-10-13T18:32:28.524Z,16.65
2022-10-13T18:37:58.454Z,16.67
2022-10-13T18:43:12.333Z,16.64
2022-10-13T18:48:34.552Z,16.62
2022-10-13T18:53:39.336Z,16.60
2022-10-13T19:04:23.715Z,16.53
2022-10-13T19:09:51.692Z,16.53
2022-10-13T19:15:09.240Z,16.48
2022-10-13T19:20:21.782Z,16.42
2022-10-13T19:25:35.976Z,16.37
2022-10-13T19:30:44.135Z,16.33
2022-10-13T19:35:55.176Z,16.32
2022-10-13T19:41:08.572Z,16.26
2022-10-13T19:46:24.654Z,16.16
2022-10-13T19:51:33.862Z,16.10
2022-10-13T19:56:56.232Z,16.03
2022-10-13T20:02:11.518Z,15.89
2022-10-13T20:07:31.558Z,15.83
2022-10-13T20:13:05.312Z,15.70
2022-10-13T20:18:10.547Z,15.64
2022-10-13T20:23:20.203Z,15.56
2022-10-13T20:28:45.172Z,15.51
2022-10-13T20:34:01.419Z,15.46
2022-10-13T20:39:23.894Z,15.43
2022-10-13T20:44:52.058Z,15.39
2022-10-13T20:50:04.007Z,15.37
2022-10-13T20:55:17.829Z,15.33
2022-10-13T21:00:24.174Z,15.31
2022-10-13T21:05:44.797Z,15.26
2022-10-13T21:10:57.294Z,15.24
2022-10-13T21:16:16.595Z,15.23
2022-10-13T21:21:27.144Z,15.20
2022-10-13T21:26:38.649Z,15.16
2022-10-13T21:31:48.720Z,15.13
2022-10-13T21:36:55.762Z,15.09
2022-10-13T21:42:24.078Z,15.05
2022-10-13T21:47:53.433Z,14.99
2022-10-13T21:53:15.650Z,15.01
2022-10-13T21:58:36.609Z,14.99
2022-10-13T22:03:54.583Z,15.00
2022-10-13T22:09:10.135Z,14.96
2022-10-13T22:14:16.669Z,14.91
2022-10-13T22:24:55.342Z,14.91
2022-10-13T22:30:11.054Z,14.90
2022-10-13T22:35:21.991Z,14.89
2022-10-13T22:40:27.686Z,14.91
2022-10-13T22:45:42.439Z,14.93
2022-10-13T22:50:51.839Z,14.94
2022-10-13T22:56:11.279Z,14.95
2022-10-13T23:01:32.960Z,14.95
2022-10-13T23:06:38.694Z,14.95
2022-10-13T23:12:01.672Z,14.94
2022-10-13T23:17:08.502Z,14.90
2022-10-13T23:22:17.540Z,14.89
2022-10-13T23:27:32.050Z,14.87
2022-10-13T23:32:43.624Z,14.86
2022-10-13T23:37:58.212Z,14.88
2022-10-13T23:43:09.907Z,14.88
2022-10-13T23:48:24.269Z,14.89
2022-10-13T23:53:39.070Z,14.90
2022-10-13T23:58:59.361Z,14.91
